Time;durP1;ratioP1;P1;durP2;ratioP2;P2;SDS_P1;SDS_P2;PMS_P1;PMS_P2;Temp;Humidity;BMP_temperature;BMP_pressure;BME280_temperature;BME280_humidity;BME280_pressure;Samples;Min_cycle;Max_cycle;Signal;HPM_P1;HPM_P2
2023/09/03 00:03:15;;;;;;;;;;;;;;;13.34;100;102733.1;;;;-81
2023/09/03 00:08:15;;;;;;;;;;;;;;;13.28;100;102730.8;;;;-83
2023/09/03 00:13:13;;;;;;;;;;;;;;;13.28;100;102745.1;;;;-81
2023/09/03 00:18:15;;;;;;;;;;;;;;;13.25;100;102736;;;;-81
2023/09/03 00:23:13;;;;;;;;;;;;;;;13.2;100;102745.7;;;;-81
2023/09/03 00:23:51;;;;;;;11.7;9.1;;;;;;;;;;;;;-81
2023/09/03 00:28:25;;;;;;;;;;;;;;;13.11;100;102746.9;;;;-81
2023/09/03 00:33:17;;;;;;;;;;;;;;;13.07;100;102737.7;;;;-81
2023/09/03 00:38:13;;;;;;;;;;;;;;;13.1;100;102729.2;;;;-82
2023/09/03 00:43:16;;;;;;;;;;;;;;;13.1;100;102715;;;;-81
2023/09/03 00:48:15;;;;;;;;;;;;;;;13.03;100;102710.5;;;;-83
2023/09/03 00:53:13;;;;;;;;;;;;;;;13.05;100;102727.9;;;;-80
2023/09/03 00:53:58;;;;;;;16;12.3;;;;;;;;;;;;;-82
2023/09/03 00:58:13;;;;;;;;;;;;;;;13.03;100;102713;;;;-82
2023/09/03 01:03:16;;;;;;;;;;;;;;;13.14;100;102711.3;;;;-84
2023/09/03 01:08:14;;;;;;;;;;;;;;;13.16;100;102736.1;;;;-82
2023/09/03 01:13:17;;;;;;;;;;;;;;;13.21;100;102742.7;;;;-81
2023/09/03 01:18:23;;;;;;;;;;;;;;;13.23;100;102747.6;;;;-81
2023/09/03 01:23:26;;;;;;;;;;;;;;;13.23;100;102742.6;;;;-81
2023/09/03 01:23:59;;;;;;;29.1;17.8;;;;;;;;;;;;;-80
2023/09/03 01:28:29;;;;;;;;;;;;;;;13.28;100;102751.1;;;;-81
2023/09/03 01:33:15;;;;;;;;;;;;;;;13.24;100;102752.6;;;;-81
2023/09/03 01:38:15;;;;;;;;;;;;;;;13.19;100;102746;;;;-82
2023/09/03 01:43:18;;;;;;;;;;;;;;;13.16;100;102748.2;;;;-82
2023/09/03 01:48:23;;;;;;;;;;;;;;;13.12;100;102754.3;;;;-82
2023/09/03 01:53:18;;;;;;;;;;;;;;;13.09;100;102758.8;;;;-82
2023/09/03 01:53:59;;;;;;;16.4;11.7;;;;;;;;;;;;;-82
2023/09/03 01:58:24;;;;;;;;;;;;;;;13.09;100;102737.5;;;;-82
2023/09/03 02:03:14;;;;;;;;;;;;;;;13.1;100;102724.5;;;;-81
2023/09/03 02:08:15;;;;;;;;;;;;;;;13.15;100;102697.5;;;;-81
2023/09/03 02:13:24;;;;;;;;;;;;;;;;;;;;;
2023/09/03 02:18:13;;;;;;;;;;;;;;;13.24;100;102699;;;;-82
2023/09/03 02:23:16;;;;;;;;;;;;;;;13.27;100;102714.5;;;;-82
2023/09/03 02:23:57;;;;;;;20.1;13.5;;;;;;;;;;;;;-81
2023/09/03 02:28:22;;;;;;;;;;;;;;;13.23;100;102695.8;;;;-81
2023/09/03 02:33:26;;;;;;;;;;;;;;;13.18;100;102688;;;;-83
2023/09/03 02:43:14;;;;;;;;;;;;;;;13.11;100;102700.1;;;;-83
2023/09/03 02:48:29;;;;;;;;;;;;;;;13.04;100;102698;;;;-82
2023/09/03 02:53:22;;;;;;;;;;;;;;;12.97;100;102706.2;;;;-81
2023/09/03 02:54:00;;;;;;;16.2;11;;;;;;;;;;;;;-84
2023/09/03 02:58:15;;;;;;;;;;;;;;;12.9;100;102721.9;;;;-84
2023/09/03 03:03:18;;;;;;;;;;;;;;;12.88;100;102734.5;;;;-81
2023/09/03 03:08:21;;;;;;;;;;;;;;;12.8;100;102743.4;;;;-84
2023/09/03 03:13:14;;;;;;;;;;;;;;;12.69;100;102742.8;;;;-80
2023/09/03 03:18:14;;;;;;;;;;;;;;;12.59;100;102754.1;;;;-82
2023/09/03 03:23:21;;;;;;;;;;;;;;;12.47;100;102743;;;;-82
2023/09/03 03:24:05;;;;;;;12.1;9.7;;;;;;;;;;;;;-82
2023/09/03 03:28:13;;;;;;;;;;;;;;;12.4;100;102743.4;;;;-82
2023/09/03 03:33:30;;;;;;;;;;;;;;;12.45;100;102743.2;;;;-83
2023/09/03 03:38:36;;;;;;;;;;;;;;;12.51;100;102759.5;;;;-82
2023/09/03 03:43:23;;;;;;;;;;;;;;;12.58;100;102753.3;;;;-81
2023/09/03 03:48:34;;;;;;;;;;;;;;;;;;;;;
2023/09/03 03:53:33;;;;;;;;;;;;;;;12.68;100;102748.2;;;;-84
2023/09/03 03:54:30;;;;;;;12.1;9.2;;;;;;;;;;;;;-82
2023/09/03 03:58:14;;;;;;;;;;;;;;;12.67;100;102747.7;;;;-82
2023/09/03 04:03:20;;;;;;;;;;;;;;;12.69;100;102731.2;;;;-81
2023/09/03 04:08:18;;;;;;;;;;;;;;;12.74;100;102729.4;;;;-82
2023/09/03 04:13:13;;;;;;;;;;;;;;;12.73;100;102738.4;;;;-82
2023/09/03 04:18:17;;;;;;;;;;;;;;;12.79;100;102754.1;;;;-82
2023/09/03 04:23:13;;;;;;;;;;;;;;;12.81;100;102759.4;;;;-80
2023/09/03 04:24:10;;;;;;;19.3;13.3;;;;;;;;;;;;;-81
2023/09/03 04:28:14;;;;;;;;;;;;;;;12.74;100;102749.3;;;;-83
2023/09/03 04:33:13;;;;;;;;;;;;;;;12.76;100;102769;;;;-83
2023/09/03 04:38:14;;;;;;;;;;;;;;;12.72;100;102782.7;;;;-83
2023/09/03 04:43:21;;;;;;;;;;;;;;;12.69;100;102788.3;;;;-83
2023/09/03 04:48:18;;;;;;;;;;;;;;;12.67;100;102793.7;;;;-82
2023/09/03 04:53:18;;;;;;;;;;;;;;;12.65;100;102802.1;;;;-81
2023/09/03 04:54:14;;;;;;;13.3;10.1;;;;;;;;;;;;;-84
2023/09/03 04:58:22;;;;;;;;;;;;;;;12.62;100;102799.3;;;;-81
2023/09/03 05:03:24;;;;;;;;;;;;;;;12.62;100;102799.1;;;;-83
2023/09/03 05:08:16;;;;;;;;;;;;;;;12.62;100;102804.6;;;;-82
2023/09/03 05:13:15;;;;;;;;;;;;;;;12.69;100;102812;;;;-81
2023/09/03 05:18:19;;;;;;;;;;;;;;;12.7;100;102821;;;;-82
2023/09/03 05:23:21;;;;;;;;;;;;;;;12.73;100;102826.7;;;;-83
2023/09/03 05:24:16;;;;;;;12.2;8.9;;;;;;;;;;;;;-81
2023/09/03 05:28:26;;;;;;;;;;;;;;;12.78;100;102842;;;;-84
2023/09/03 05:33:25;;;;;;;;;;;;;;;12.85;100;102852.4;;;;-82
2023/09/03 05:38:13;;;;;;;;;;;;;;;12.93;100;102860.8;;;;-83
2023/09/03 05:43:21;;;;;;;;;;;;;;;13.02;100;102863.2;;;;-82
2023/09/03 05:48:26;;;;;;;;;;;;;;;13.22;100;102877;;;;-85
2023/09/03 05:53:49;;;;;;;;;;;;;;;13.31;100;102877.1;;;;-83
2023/09/03 05:54:24;;;;;;;20;13.1;;;;;;;;;;;;;-84
2023/09/03 06:03:21;;;;;;;;;;;;;;;13.58;100;102860;;;;-82
2023/09/03 06:08:21;;;;;;;;;;;;;;;13.73;100;102858;;;;-82
2023/09/03 06:13:15;;;;;;;;;;;;;;;13.93;100;102866.1;;;;-82
2023/09/03 06:18:18;;;;;;;;;;;;;;;14.1;100;102869.8;;;;-81
2023/09/03 06:23:29;;;;;;;;;;;;;;;14.34;100;102873.7;;;;-82
2023/09/03 06:24:19;;;;;;;28.5;17.7;;;;;;;;;;;;;-82
2023/09/03 06:28:15;;;;;;;;;;;;;;;14.53;100;102873.4;;;;-81
2023/09/03 06:33:36;;;;;;;;;;;;;;;14.77;100;102868.5;;;;-80
2023/09/03 06:38:25;;;;;;;;;;;;;;;14.96;100;102872.4;;;;-82
2023/09/03 06:43:28;;;;;;;;;;;;;;;15.2;100;102883;;;;-82
2023/09/03 06:48:18;;;;;;;;;;;;;;;15.37;100;102888.1;;;;-83
2023/09/03 06:53:26;;;;;;;;;;;;;;;15.56;100;102887.2;;;;-84
2023/09/03 06:54:22;;;;;;;23.5;15.2;;;;;;;;;;;;;-82
2023/09/03 06:58:27;;;;;;;;;;;;;;;15.74;100;102900.8;;;;-81
2023/09/03 07:03:22;;;;;;;;;;;;;;;15.93;100;102910.7;;;;-81
2023/09/03 07:08:15;;;;;;;;;;;;;;;16.21;100;102910.9;;;;-84
2023/09/03 07:13:23;;;;;;;;;;;;;;;16.47;100;102915.6;;;;-83
2023/09/03 07:18:21;;;;;;;;;;;;;;;16.51;100;102892.3;;;;-82
2023/09/03 07:23:43;;;;;;;;;;;;;;;16.98;100;102934.9;;;;-81
2023/09/03 07:24:19;;;;;;;18;12.7;;;;;;;;;;;;;-83
2023/09/03 07:28:42;;;;;;;;;;;;;;;17.08;100;102940.1;;;;-82
2023/09/03 07:33:31;;;;;;;;;;;;;;;17.37;100;102936.3;;;;-83
2023/09/03 07:38:36;;;;;;;;;;;;;;;17.6;100;102930.6;;;;-81
2023/09/03 07:48:20;;;;;;;;;;;;;;;18.05;100;102926;;;;-83
2023/09/03 07:53:22;;;;;;;;;;;;;;;18.28;97.96289;102928.4;;;;-83
2023/09/03 07:54:42;;;;;;;12.7;7.7;;;;;;;;;;;;;-82
2023/09/03 07:58:25;;;;;;;;;;;;;;;18.38;96.13574;102928.7;;;;-81
2023/09/03 08:03:14;;;;;;;;;;;;;;;18.48;94.20605;102932.5;;;;-82
2023/09/03 08:08:17;;;;;;;;;;;;;;;18.59;92.36523;102931.2;;;;-78
2023/09/03 08:13:14;;;;;;;;;;;;;;;18.58;93.2168;102926.3;;;;-79
2023/09/03 08:18:16;;;;;;;;;;;;;;;18.6;91.70508;102925.9;;;;-80
2023/09/03 08:23:18;;;;;;;;;;;;;;;18.77;91.57324;102933.1;;;;-81
2023/09/03 08:24:31;;;;;;;11.7;7.4;;;;;;;;;;;;;-79
2023/09/03 08:28:14;;;;;;;;;;;;;;;18.99;89.95215;102936.4;;;;-78
2023/09/03 08:33:17;;;;;;;;;;;;;;;19.18;88.40234;102939.2;;;;-80
2023/09/03 08:38:17;;;;;;;;;;;;;;;19.4;88.22168;102944.9;;;;-80
2023/09/03 08:43:14;;;;;;;;;;;;;;;19.84;84.17871;102934.2;;;;-79
2023/09/03 08:48:17;;;;;;;;;;;;;;;20.03;78.50879;102948.5;;;;-79
2023/09/03 08:53:17;;;;;;;;;;;;;;;20.11;79.14551;102945.6;;;;-79
2023/09/03 09:03:27;;;;;;;;;;;;;;;20.57;74.39844;102950.6;;;;-80
2023/09/03 09:08:20;;;;;;;;;;;;;;;20.29;77.48926;102952;;;;-80
2023/09/03 09:13:25;;;;;;;;;;;;;;;20.45;77.58398;102960.3;;;;-80
2023/09/03 09:23:26;;;;;;;;;;;;;;;20.9;73.80371;102956.1;;;;-81
2023/09/03 09:47:21;;;;;;;;;;;;;;;21.44;66.06738;102963.9;;;;-80
2023/09/03 09:52:19;;;;;;;;;;;;;;;21.63;65.72949;102960.2;;;;-80
2023/09/03 09:57:35;;;;;;;;;;;;;;;21.98;64.78809;102961.7;;;;-83
2023/09/03 10:04:02;;;;;;;;;;;;;;;22.22;63.4082;102958.9;;;;-80
2023/09/03 10:14:34;;;;;;;;;;;;;;;22.45;60.66211;102962.8;;;;-80
2023/09/03 10:19:32;;;;;;;;;;;;;;;22.46;59.18848;102967.6;;;;-78
2023/09/03 10:24:28;;;;;;;;;;;;;;;22.47;57.93066;102970.5;;;;-79
2023/09/03 10:24:50;;;;;;;4.5;3.3;;;;;;;;;;;;;-79
2023/09/03 10:34:30;;;;;;;;;;;;;;;22.73;55.35254;102970.6;;;;-78
2023/09/03 10:39:38;;;;;;;;;;;;;;;23.2;56.99414;102968.7;;;;-80
2023/09/03 10:44:34;;;;;;;;;;;;;;;23.49;55.41113;102964.1;;;;-79
2023/09/03 10:49:25;;;;;;;;;;;;;;;23.93;54.51172;102958.2;;;;-84
2023/09/03 10:54:27;;;;;;;;;;;;;;;23.81;52.83203;102962.7;;;;-85
2023/09/03 10:54:47;;;;;;;3.9;2.4;;;;;;;;;;;;;-82
2023/09/03 10:59:25;;;;;;;;;;;;;;;23.85;53.47852;102957.2;;;;-86
2023/09/03 11:04:40;;;;;;;;;;;;;;;24.41;57.75586;102960;;;;-84
2023/09/03 11:09:35;;;;;;;;;;;;;;;24.65;52.14648;102949.7;;;;-84
2023/09/03 11:14:37;;;;;;;;;;;;;;;25.08;49.6582;102956.2;;;;-84
2023/09/03 11:19:24;;;;;;;;;;;;;;;25.36;51.29297;102957.2;;;;-84
2023/09/03 11:24:24;;;;;;;;;;;;;;;25.29;48.39941;102954.7;;;;-85
2023/09/03 11:25:04;;;;;;;2.4;1.3;;;;;;;;;;;;;-86
2023/09/03 11:29:28;;;;;;;;;;;;;;;25.05;47.7041;102958.1;;;;-86
2023/09/03 11:34:31;;;;;;;;;;;;;;;25.5;48.26172;102959.1;;;;-85
2023/09/03 11:39:27;;;;;;;;;;;;;;;25.67;48.40527;102960.9;;;;-85
2023/09/03 11:44:36;;;;;;;;;;;;;;;25.8;49.54199;102965.4;;;;-85
2023/09/03 11:49:47;;;;;;;;;;;;;;;26.21;50.31543;102964.9;;;;-85
2023/09/03 11:54:59;;;;;;;2.1;1.2;;;;;;;;;;;;;-84
2023/09/03 11:59:33;;;;;;;;;;;;;;;26.23;45.28125;102965.1;;;;-84
2023/09/03 12:04:24;;;;;;;;;;;;;;;25.87;45.4541;102964.8;;;;-84
2023/09/03 12:09:31;;;;;;;;;;;;;;;25.5;45.97266;102954.6;;;;-86
2023/09/03 12:14:36;;;;;;;;;;;;;;;25.51;46.33203;102955.4;;;;-87
2023/09/03 12:19:26;;;;;;;;;;;;;;;26.11;46.74121;102959.5;;;;-82
2023/09/03 12:24:58;;;;;;;2.3;1;;;;;;;;;;;;;-78
2023/09/03 12:27:08;;;;;;;;;;;;;;;25.87;46.0332;102951.1;;;;-81
2023/09/03 12:32:06;;;;;;;;;;;;;;;25.92;44.34766;102945.5;;;;-80
2023/09/03 12:37:01;;;;;;;;;;;;;;;25.95;45.60156;102959.2;;;;-76
2023/09/03 12:42:02;;;;;;;;;;;;;;;26.37;45.63086;102965;;;;-78
2023/09/03 12:47:02;;;;;;;;;;;;;;;26.75;44.42969;102957.6;;;;-79
2023/09/03 12:52:00;;;;;;;;;;;;;;;26.65;43.67676;102953.4;;;;-80
2023/09/03 12:55:09;;;;;;;1.7;0.9;;;;;;;;;;;;;-80
2023/09/03 12:57:03;;;;;;;;;;;;;;;26.74;41.77051;102954;;;;-80
2023/09/03 13:01:59;;;;;;;;;;;;;;;26.85;45.16992;102950.3;;;;-79
2023/09/03 13:06:58;;;;;;;;;;;;;;;27.13;43.6416;102940.1;;;;-80
2023/09/03 13:11:59;;;;;;;;;;;;;;;27.45;37.50684;102940.3;;;;-80
2023/09/03 13:17:00;;;;;;;;;;;;;;;26.94;35.37109;102950.6;;;;-81
2023/09/03 13:21:58;;;;;;;;;;;;;;;26.71;36.62012;102949.6;;;;-80
2023/09/03 13:25:07;;;;;;;1.3;0.7;;;;;;;;;;;;;-80
2023/09/03 13:26:59;;;;;;;;;;;;;;;26.84;36.53809;102946.1;;;;-79
2023/09/03 13:31:59;;;;;;;;;;;;;;;27.03;33.99219;102942;;;;-81
2023/09/03 13:36:59;;;;;;;;;;;;;;;26.87;32.30469;102949.5;;;;-80
2023/09/03 13:41:59;;;;;;;;;;;;;;;26.59;31.83008;102946.1;;;;-79
2023/09/03 13:47:02;;;;;;;;;;;;;;;26.65;32.07813;102946.2;;;;-78
2023/09/03 13:51:58;;;;;;;;;;;;;;;26.86;31.68652;102954.1;;;;-79
2023/09/03 13:55:13;;;;;;;1.2;0.7;;;;;;;;;;;;;-79
2023/09/03 13:56:58;;;;;;;;;;;;;;;27.06;33.2373;102958.8;;;;-80
2023/09/03 14:01:58;;;;;;;;;;;;;;;27.45;36.30762;102956.5;;;;-80
2023/09/03 14:06:59;;;;;;;;;;;;;;;27.42;33.39355;102951.7;;;;-80
2023/09/03 14:11:59;;;;;;;;;;;;;;;27.17;34.0498;102944.9;;;;-78
2023/09/03 14:17:00;;;;;;;;;;;;;;;26.99;32.13867;102939.5;;;;-80
2023/09/03 14:21:59;;;;;;;;;;;;;;;26.48;31.35645;102938.5;;;;-79
2023/09/03 14:25:22;;;;;;;2.4;0.7;;;;;;;;;;;;;-80
2023/09/03 14:26:58;;;;;;;;;;;;;;;25.82;30.95117;102927.7;;;;-81
2023/09/03 14:31:59;;;;;;;;;;;;;;;25.43;29.46094;102927.7;;;;-80
2023/09/03 14:36:58;;;;;;;;;;;;;;;25.13;30.98438;102927.9;;;;-79
2023/09/03 14:41:58;;;;;;;;;;;;;;;25.14;32.04102;102931.1;;;;-78
2023/09/03 14:46:59;;;;;;;;;;;;;;;25;32.61133;102936.5;;;;-78
2023/09/03 14:51:58;;;;;;;;;;;;;;;25.12;34.62598;102945.3;;;;-79
2023/09/03 14:55:22;;;;;;;1.2;0.7;;;;;;;;;;;;;-80
2023/09/03 14:56:58;;;;;;;;;;;;;;;24.88;35.70801;102948.2;;;;-80
2023/09/03 15:01:59;;;;;;;;;;;;;;;24.88;39.11133;102946.6;;;;-79
2023/09/03 15:06:59;;;;;;;;;;;;;;;24.73;38.69336;102939.2;;;;-80
2023/09/03 15:12:00;;;;;;;;;;;;;;;25.12;39.28223;102939;;;;-79
2023/09/03 15:17:00;;;;;;;;;;;;;;;25.36;38.6084;102933.9;;;;-80
2023/09/03 15:21:59;;;;;;;;;;;;;;;25.38;38.50586;102929.1;;;;-79
2023/09/03 15:25:31;;;;;;;1.6;1;;;;;;;;;;;;;-79
2023/09/03 15:26:59;;;;;;;;;;;;;;;25.11;39.30469;102921.5;;;;-80
2023/09/03 15:31:58;;;;;;;;;;;;;;;24.6;39.43359;102921.7;;;;-80
2023/09/03 15:36:59;;;;;;;;;;;;;;;24.36;38.03711;102913;;;;-81
2023/09/03 15:41:59;;;;;;;;;;;;;;;24.49;38.52344;102921.1;;;;-81
2023/09/03 15:46:59;;;;;;;;;;;;;;;24.27;38.66504;102926.9;;;;-81
2023/09/03 15:52:02;;;;;;;;;;;;;;;24.57;39.89355;102915.8;;;;-80
2023/09/03 15:55:34;;;;;;;2.1;1.4;;;;;;;;;;;;;-80
2023/09/03 15:56:58;;;;;;;;;;;;;;;24.63;37.04199;102920.9;;;;-79
2023/09/03 16:02:01;;;;;;;;;;;;;;;24.73;36.87598;102913.8;;;;-81
2023/09/03 16:06:58;;;;;;;;;;;;;;;24.58;37.00293;102908.8;;;;-82
2023/09/03 16:12:01;;;;;;;;;;;;;;;24.24;37.21777;102916;;;;-81
2023/09/03 16:16:58;;;;;;;;;;;;;;;24.28;38.31934;102921.4;;;;-80
2023/09/03 16:21:59;;;;;;;;;;;;;;;24.28;38.98926;102919.4;;;;-81
2023/09/03 16:25:36;;;;;;;1.8;1.1;;;;;;;;;;;;;-81
2023/09/03 16:27:00;;;;;;;;;;;;;;;24.26;38.71094;102916.1;;;;-81
2023/09/03 16:31:59;;;;;;;;;;;;;;;24.22;39.66602;102919.4;;;;-81
2023/09/03 16:36:59;;;;;;;;;;;;;;;24.26;39.96973;102918.2;;;;-81
2023/09/03 16:42:03;;;;;;;;;;;;;;;24.26;40.5127;102907.8;;;;-80
2023/09/03 16:46:59;;;;;;;;;;;;;;;24.22;41.16699;102911;;;;-81
2023/09/03 16:52:02;;;;;;;;;;;;;;;24.3;42.34082;102904.7;;;;-80
2023/09/03 16:55:40;;;;;;;2.4;1.4;;;;;;;;;;;;;-80
2023/09/03 16:56:58;;;;;;;;;;;;;;;24.22;42.0791;102899.6;;;;-82
2023/09/03 17:02:01;;;;;;;;;;;;;;;24.17;43.55176;102904;;;;-80
2023/09/03 17:07:00;;;;;;;;;;;;;;;24.1;44.3291;102909.3;;;;-80
2023/09/03 17:12:08;;;;;;;;;;;;;;;23.95;45.74414;102908.3;;;;-81
2023/09/03 17:17:03;;;;;;;;;;;;;;;23.77;47.15332;102907.4;;;;-80
2023/09/03 17:21:58;;;;;;;;;;;;;;;23.58;47.62891;102904.4;;;;-80
2023/09/03 17:25:45;;;;;;;2.1;1.3;;;;;;;;;;;;;-80
2023/09/03 17:26:58;;;;;;;;;;;;;;;23.45;48.30664;102900.1;;;;-81
2023/09/03 17:32:09;;;;;;;;;;;;;;;23.26;47.89355;102888.4;;;;-79
2023/09/03 17:36:59;;;;;;;;;;;;;;;23.05;48.76758;102879.8;;;;-81
2023/09/03 17:42:03;;;;;;;;;;;;;;;22.87;49.4502;102873.5;;;;-81
2023/09/03 17:47:01;;;;;;;;;;;;;;;22.7;50.33691;102874.8;;;;-81
2023/09/03 17:52:01;;;;;;;;;;;;;;;22.52;51.95703;102872.3;;;;-81
2023/09/03 17:56:03;;;;;;;2;1.3;;;;;;;;;;;;;-78
2023/09/03 18:26:11;;;;;;;2.9;1.8;;;;;;;;;;;;;-84
2023/09/03 18:28:15;;;;;;;;;;;;;;;21.06;61.03418;102882;;;;-84
2023/09/03 18:33:17;;;;;;;;;;;;;;;20.84;62.57617;102887.9;;;;-82
2023/09/03 18:38:16;;;;;;;;;;;;;;;20.64;63.93555;102891.8;;;;-83
2023/09/03 18:43:03;;;;;;;;;;;;;;;20.47;65.27637;102899.8;;;;-85
2023/09/03 18:58:03;;;;;;;;;;;;;;;19.93;69.87109;102887.6;;;;-86
2023/09/03 19:03:26;;;;;;;;;;;;;;;19.72;71.94727;102885.2;;;;-84
2023/09/03 19:08:03;;;;;;;;;;;;;;;19.58;74.07324;102884;;;;-84
2023/09/03 19:13:17;;;;;;;;;;;;;;;19.44;74.0166;102889;;;;-83
2023/09/03 19:18:09;;;;;;;;;;;;;;;19.26;76.97168;102889.2;;;;-83
2023/09/03 19:23:01;;;;;;;;;;;;;;;19.13;77.58203;102891.9;;;;-83
2023/09/03 19:26:14;;;;;;;3.4;2.2;;;;;;;;;;;;;-84
2023/09/03 19:28:00;;;;;;;;;;;;;;;18.98;78.40234;102894.3;;;;-84
2023/09/03 19:33:02;;;;;;;;;;;;;;;18.89;78.81348;102896.5;;;;-82
2023/09/03 19:38:07;;;;;;;;;;;;;;;18.75;78.16992;102879.4;;;;-82
2023/09/03 19:43:02;;;;;;;;;;;;;;;18.67;79.97168;102886.1;;;;-82
2023/09/03 19:48:19;;;;;;;;;;;;;;;18.53;82.91895;102884.2;;;;-82
2023/09/03 19:53:03;;;;;;;;;;;;;;;18.43;80.64844;102881.7;;;;-84
2023/09/03 19:56:06;;;;;;;4.4;2.3;;;;;;;;;;;;;-81
2023/09/03 19:58:13;;;;;;;;;;;;;;;18.31;82.23828;102876.3;;;;-83
2023/09/03 20:03:01;;;;;;;;;;;;;;;18.21;81.59961;102873.9;;;;-82
2023/09/03 20:08:01;;;;;;;;;;;;;;;18.15;84.59277;102873.9;;;;-83
2023/09/03 20:13:01;;;;;;;;;;;;;;;18.06;86.19434;102873.5;;;;-83
2023/09/03 20:18:03;;;;;;;;;;;;;;;17.96;86.47656;102865.5;;;;-84
2023/09/03 20:23:06;;;;;;;;;;;;;;;17.9;88.45313;102872.3;;;;-84
2023/09/03 20:26:22;;;;;;;3.6;2.1;;;;;;;;;;;;;-84
2023/09/03 20:28:16;;;;;;;;;;;;;;;;;;;;;
2023/09/03 20:33:03;;;;;;;;;;;;;;;17.8;88.12109;102883.2;;;;-83
2023/09/03 20:38:03;;;;;;;;;;;;;;;17.73;90.27148;102877.4;;;;-84
2023/09/03 20:43:12;;;;;;;;;;;;;;;17.7;90.47852;102875.2;;;;-85
2023/09/03 20:48:05;;;;;;;;;;;;;;;17.64;91.01563;102877.1;;;;-84
2023/09/03 20:53:11;;;;;;;;;;;;;;;17.54;89.09863;102870.4;;;;-83
2023/09/03 20:56:17;;;;;;;3.4;2.2;;;;;;;;;;;;;-83
2023/09/03 20:58:02;;;;;;;;;;;;;;;17.54;91.60938;102886.9;;;;-83
2023/09/03 21:08:07;;;;;;;;;;;;;;;17.45;90.75;102884.2;;;;-83
2023/09/03 21:13:12;;;;;;;;;;;;;;;17.38;92.46191;102886.7;;;;-83
2023/09/03 21:18:03;;;;;;;;;;;;;;;17.34;90.80664;102890.7;;;;-84
2023/09/03 21:23:05;;;;;;;;;;;;;;;17.27;87.26367;102891.4;;;;-81
2023/09/03 21:26:15;;;;;;;5.8;3.1;;;;;;;;;;;;;-81
2023/09/03 21:28:03;;;;;;;;;;;;;;;17.22;89.47363;102895.1;;;;-83
2023/09/03 21:33:04;;;;;;;;;;;;;;;17.2;95.57031;102896.4;;;;-82
2023/09/03 21:38:05;;;;;;;;;;;;;;;17.13;95.49902;102903.9;;;;-85
2023/09/03 21:43:18;;;;;;;;;;;;;;;17.05;97.57129;102906.1;;;;-86
2023/09/03 21:56:36;;;;;;;5.5;4.1;;;;;;;;;;;;;-82
2023/09/03 21:58:15;;;;;;;;;;;;;;;16.79;98.58496;102921.2;;;;-80
2023/09/03 22:03:03;;;;;;;;;;;;;;;16.77;96.55078;102920.5;;;;-83
2023/09/03 22:08:11;;;;;;;;;;;;;;;16.75;95.38281;102912.3;;;;-81
2023/09/03 22:13:31;;;;;;;;;;;;;;;16.68;96.98926;102906.7;;;;-82
2023/09/03 22:18:17;;;;;;;;;;;;;;;16.58;97.2793;102906;;;;-82
2023/09/03 22:23:00;;;;;;;;;;;;;;;16.47;97.7666;102901.9;;;;-82
2023/09/03 22:26:24;;;;;;;5;3.3;;;;;;;;;;;;;-84
2023/09/03 22:28:06;;;;;;;;;;;;;;;16.45;97.70703;102908.5;;;;-82
2023/09/03 22:33:00;;;;;;;;;;;;;;;16.37;97.92383;102902.9;;;;-82
2023/09/03 22:38:02;;;;;;;;;;;;;;;16.28;96.57813;102909.1;;;;-82
2023/09/03 22:43:20;;;;;;;;;;;;;;;16.15;94.95508;102911.5;;;;-84
2023/09/03 22:48:09;;;;;;;;;;;;;;;16.06;93.63965;102915.1;;;;-83
2023/09/03 22:53:05;;;;;;;;;;;;;;;16.01;94.83496;102908.8;;;;-83
2023/09/03 23:01:26;;;;;;;;;;;;;;;15.74;92.94727;102911.2;;;;-81
2023/09/03 23:06:21;;;;;;;;;;;;;;;15.63;93.12695;102921.3;;;;-82
2023/09/03 23:11:28;;;;;;;;;;;;;;;15.55;96.41797;102916.1;;;;-81
2023/09/03 23:16:24;;;;;;;;;;;;;;;15.53;100;102899.8;;;;-82
2023/09/03 23:21:21;;;;;;;;;;;;;;;15.56;100;102905.6;;;;-81
2023/09/03 23:26:22;;;;;;;6.7;5.1;;;;;;;;;;;;;-80
2023/09/03 23:26:46;;;;;;;;;;;;;;;15.14;100;102851.6;;;;-81
2023/09/03 23:31:26;;;;;;;;;;;;;;;15.46;100;102905.1;;;;-81
2023/09/03 23:36:32;;;;;;;;;;;;;;;15.4;100;102900.9;;;;-82
2023/09/03 23:41:37;;;;;;;;;;;;;;;15.33;100;102899.9;;;;-82
2023/09/03 23:46:26;;;;;;;;;;;;;;;15.27;100;102901.7;;;;-81
2023/09/03 23:51:33;;;;;;;;;;;;;;;15.09;95.08398;102893.9;;;;-83
2023/09/03 23:56:30;;;;;;;;;;;;;;;15.23;100;102911.8;;;;-81
2023/09/03 23:56:52;;;;;;;7.2;5;;;;;;;;;;;;;-81
